Station: Victor Harbor

  Atmospheric Gas Attenuation - ITU Rec 676-11   --------------- db/100km ---------------
Date Time Temp RH % AH g/m3 Dew Point Wind Direction Speed kph Gust kph Barometer mB Rainfall Since 9am 24GHz 47GHz 76GHz 122GHz 134GHz 241GHz
12 09:00 11.9 82 8.69 8.9 7 1013.1 5 19.9 26.6 41.1 108.0 102.1 351.0
11 09:00 9.3 90 8.09 7.8 2 1013.1 3 18.7 26.4 40.0 104.9 97.2 333.7
10 09:00 13 51 5.78 3.2 9 1013.1 0 13.6 21.7 29.4 76.6 63.7 216.8
09 09:00 7.3 95 7.51 6.6 0 1013.1 0 17.5 26.0 38.5 101.0 91.6 314.0
08 09:00 6.8 94 7.19 5.9 0 1013.1 0 16.9 25.6 37.4 98.1 87.8 300.5
07 09:00 10.9 68 6.77 5.3 0 1013.1 0 15.8 23.8 33.9 88.7 77.8 266.1
06 09:00 10.6 89 8.69 8.8 0 1013.1 0 19.9 27.0 41.8 109.8 103.8 357.0
05 09:00 11.4 90 9.24 9.8 2 1013.1 0.4 21.1 27.7 43.7 114.9 110.3 379.9
04 09:00 10.9 89 8.85 9.1 4 1013.1 2 20.3 27.2 42.3 111.2 105.6 363.3
03 09:00 11.6 89 9.25 9.8 7 1013.1 6 21.1 27.6 43.6 114.7 110.2 379.4
02 09:00 8.4 86 7.3 6.2 4 1013.1 11 17.0 25.3 37.1 97.3 87.5 299.6
01 09:00 13.2 44 5.05 1.4 11 1013.1 0 12.1 20.7 26.7 69.4 55.0 186.1
30 09:00 10.5 57 5.53 2.4 13 1013.1 0 13.2 22.0 29.3 76.5 62.7 212.8
29 09:00 4.9 97 6.55 4.4 0 1013.1 0.1 15.6 25.1 35.6 93.2 81.1 276.6
28 09:00 6.1 95 6.94 5.4 0 1013.1 0.1 16.4 25.4 36.7 96.1 85.1 291.0
27 09:00 7.5 93 7.45 6.4 0 1013.1 0.1 17.4 25.8 38.2 100.1 90.6 310.3
26 09:00 10.6 95 9.27 9.8 0 1013.1 0.1 21.2 28.0 44.3 116.4 111.9 385.4
25 09:00 12.2 83 8.96 9.5 6 1013.1 0.1 20.4 27.0 42.1 110.6 105.3 362.6
24 09:00 9.4 97 8.78 9 0 1013.1 0.8 20.2 27.5 42.8 112.5 106.7 367.0
23 09:00 11.5 94 9.71 10.5 6 1013.1 7 22.1 28.5 45.7 120.1 116.8 402.6
22 09:00 11.8 84 8.84 9.2 15 1013.1 9 20.2 26.9 41.8 109.8 104.2 358.7
21 09:00 12.5 76 8.36 8.5 15 1013.1 16 19.1 25.9 39.5 103.6 96.8 332.9
20 09:00 9 96 8.47 8.4 0 1013.1 7 19.5 27.1 41.7 109.6 102.9 353.6
19 09:00 16 45 6.13 4.3 19 1013.1 0 14.3 21.6 29.5 77.1 65.4 223.1
18 09:00 10.9 92 9.15 9.7 0 1013.1 0.1 20.9 27.7 43.6 114.6 109.8 378.0
17 09:00 12.6 94 10.4 11.7 0 1013.1 1 23.5 29.3 48.0 126.3 124.9 431.0
16 09:00 14.5 88 10.95 12.5 7 1013.1 3 24.6 29.6 49.2 129.5 129.6 447.6
15 09:00 14.5 89 11.07 12.7 19 1013.1 5 24.8 29.8 49.7 130.9 131.3 453.5
14 09:00 13.8 75 8.94 9.5 15 1013.1 5 20.3 26.4 41.2 108.1 102.9 354.3
13 09:00 14.1 65 7.89 7.7 15 1013.1 0.6 18.1 24.7 36.8 96.6 88.8 304.9
12 09:00 4.2 99 6.38 4 0 1013.1 0.1 15.2 25.0 35.2 92.2 79.5 270.8
11 09:00 4.9 92 6.21 3.7 0 1013.1 0.1 14.8 24.5 34.2 89.5 76.4 260.3
10 09:00 5.1 99 6.78 4.9 0 1013.1 0.1 16.1 25.4 36.5 95.6 84.0 287.0
09 09:00 3.8 99 6.22 3.6 0 1013.1 0.1 14.9 24.8 34.7 90.9 77.7 264.4
08 09:00 7.5 83 6.65 4.8 4 1013.1 0.1 15.7 24.5 34.9 91.3 79.7 272.2
07 09:00 9.9 92 8.59 8.7 0 1013.1 6 19.8 27.0 41.8 109.7 103.4 355.3
06 09:00 9.2 90 8.04 7.7 0 1013.1 0.1 18.6 26.3 39.8 104.4 96.6 331.7
05 09:00 6.4 97 7.23 6 4 1013.1 0.1 17.0 25.8 37.8 99.0 88.8 303.9
04 09:00 6.5 97 7.28 6.1 0 1013.1 0.1 17.1 25.8 38.0 99.5 89.4 306.0
03 09:00 13.9 67 8.03 7.9 11 1013.1 0.8 18.4 24.9 37.5 98.3 90.8 312.0
02 09:00 12.9 87 9.81 10.8 6 1013.1 2 22.2 28.2 45.3 119.1 116.1 400.2
01 09:00 10 87 8.18 7.9 13 1013.1 22 18.9 26.3 40.0 104.9 97.6 335.0
31 09:00 10.7 90 8.84 9.1 4 1013.1 14 20.3 27.2 42.4 111.3 105.7 363.8
30 09:00 16.5 41 5.76 3.3 19 1013.1 0 13.5 20.9 28.1 73.1 60.8 206.8
29 09:00 12.8 75 8.4 8.6 0 1013.1 0.2 19.2 25.9 39.5 103.6 97.0 333.5
28 09:00 10.8 93 9.19 9.8 0 1013.1 1 21.0 27.8 43.8 115.2 110.5 380.4
27 09:00 14 77 9.29 10 11 1013.1 0 21.1 27.0 42.5 111.6 107.3 369.8
26 09:00 1013.1
25 09:00 10.6 80 7.81 7.3 6 1013.1 0.4 18.0 25.5 38.2 100.1 91.8 315.0
24 09:00 13 71 8.05 8 9 1013.1 3 18.5 25.2 38.0 99.6 92.1 316.5
23 09:00 13.4 91 10.58 11.9 9 1013.1 5 23.9 29.3 48.3 127.1 126.2 435.5
22 09:00 12.5 87 9.57 10.4 0 1013.1 0.2 21.7 27.9 44.5 117.0 113.3 390.6
21 09:00 11 90 9.01 9.4 6 1013.1 19 20.6 27.4 43.0 112.8 107.7 370.6
20 09:00 11.5 77 7.95 7.6 6 1013.1 5 18.3 25.5 38.3 100.4 92.6 317.9
19 09:00 18.1 44 6.8 5.6 15 1013.1 0 15.6 22.0 31.1 81.3 71.4 244.5
18 09:00 8.8 90 7.84 7.3 0 1013.1 0.1 18.2 26.1 39.2 102.7 94.4 323.8
17 09:00 9 75 6.61 4.8 0 1013.1 0.1 15.5 24.0 34.1 89.1 77.7 265.2
16 09:00 9.5 74 6.74 5.1 6 1013.1 0.1 15.8 24.1 34.4 89.9 78.9 269.5
15 09:00 7.1 99 7.72 6.9 0 1013.1 0.1 18.0 26.4 39.5 103.6 94.8 325.0
14 09:00 11.5 83 8.57 8.7 0 1013.1 0.4 19.6 26.5 40.8 107.2 101.0 347.1
13 09:00 13.3 53 6.12 4.1 9 1013.1 7 14.3 22.2 30.5 79.6 67.5 230.3
12 09:00 13 79 8.96 9.5 2 1013.1 0.1 20.4 26.7 41.7 109.4 104.2 358.9
11 09:00 13.2 84 9.65 10.5 6 1013.1 0.2 21.9 27.8 44.4 116.8 113.4 390.9
10 09:00 10.5 87 8.44 8.5 2 1013.1 4 19.4 26.6 40.8 107.1 100.5 345.3
09 09:00 12.5 70 7.7 7.2 15 1013.1 15 17.7 24.8 36.8 96.5 88.2 302.4
08 09:00 14.5 84 10.45 11.9 2 1013.1 1 23.5 28.8 47.1 123.8 122.5 423.0
07 09:00 18.2 73 11.35 13.3 19 1013.1 0.2 25.2 29.1 48.6 127.9 128.9 445.7
06 09:00 11.8 87 9.16 9.8 2 1013.1 0.1 20.9 27.4 43.1 113.4 108.6 374.1
05 09:00 9.8 96 8.91 9.2 0 1013.1 0.1 20.5 27.6 43.2 113.5 108.0 371.5
04 09:00 13.5 74 8.66 9 0 1013.1 0 19.7 26.1 40.2 105.5 99.6 342.5
03 09:00 13 74 8.39 8.6 4 1013.1 0.6 19.2 25.8 39.3 103.2 96.6 332.1
02 09:00 14.6 88 11.01 12.6 17 1013.1 14 24.7 29.7 49.4 130.1 130.3 450.0
01 09:00 13.1 86 9.81 10.8 15 1013.1 13 22.2 28.1 45.2 118.8 115.8 399.2
30 09:00 11.5 69 7.13 6 19 1013.1 22 16.6 24.2 35.0 91.7 81.9 280.3
29 09:00 12.7 92 10.24 11.4 6 1013.1 5 23.2 29.0 47.2 124.3 122.5 422.5
28 09:00 13.4 82 9.53 10.5 2 1013.1 0.1 21.6 27.5 43.8 115.2 111.5 384.1
27 09:00 13.1 76 8.67 9 2 1013.1 0.1 19.8 26.2 40.4 106.1 100.2 344.8
26 09:00 15.8 85 11.44 13.3 13 1013.1 20 25.6 30.0 50.5 133.0 134.3 464.2
25 09:00 14.8 89 11.27 13 0 1013.1 0.1 25.3 30.1 50.4 132.7 133.6 461.7
24 09:00 15.2 96 12.46 14.5 0 1013.1 2 27.8 32.0 55.4 146.1 150.2 519.5
23 09:00 19.1 54 8.85 9.7 11 1013.1 0.1 19.9 24.8 38.2 100.2 95.0 327.4
22 09:00 13.4 89 10.35 11.7 2 1013.1 0.1 23.4 28.9 47.3 124.4 122.9 424.1
21 09:00 16.9 75 10.79 12.4 9 1013.1 0.1 24.1 28.5 47.0 123.8 123.4 426.2
20 09:00 17.4 70 10.37 12 9 1013.1 0.6 23.2 27.7 45.0 118.4 116.9 403.7
19 09:00 11.9 93 9.85 10.8 6 1013.1 3 22.4 28.6 46.0 121.1 118.2 407.4
18 09:00 14.7 82 10.32 11.7 4 1013.1 0.2 23.2 28.5 46.4 122.0 120.4 415.6
17 09:00 15 78 10 11.3 6 1013.1 0.1 22.5 27.8 44.9 118.0 115.5 398.6
16 09:00 17.8 80 12.14 14.3 15 1013.1 0.2 26.9 30.5 52.2 137.5 140.6 486.4
15 09:00 21 41 7.51 7.5 0 1013.1 0 17.0 22.3 32.5 85.0 77.0 264.3
14 09:00 17.5 77 11.48 13.4 0 1013.1 0 25.5 29.5 49.6 130.5 131.9 456.0
13 09:00 13.5 78 9.12 9.8 0 1013.1 0.1 20.7 26.8 42.1 110.5 105.7 364.1
12 09:00 14.7 65 8.18 8.2 4 1013.1 0 18.7 25.0 37.7 98.8 91.8 315.6
11 09:00 16.4 76 10.61 12.2 17 1013.1 0.4 23.7 28.4 46.6 122.6 121.7 420.4
10 09:00 16.7 85 12.08 14.1 9 1013.1 0.1 26.9 30.8 52.7 138.8 141.7 490.4
09 09:00 13.6 84 9.89 11 0 1013.1 0.1 22.4 28.1 45.2 118.9 116.1 400.5
08 09:00 14 74 8.93 9.5 11 1013.1 0.2 20.3 26.4 41.0 107.7 102.5 352.9
07 09:00 15.3 90 11.75 13.7 6 1013.1 0.4 26.3 30.7 52.2 137.5 139.6 482.7
06 09:00 15.9 86 11.65 13.6 6 1013.1 6 26.0 30.4 51.3 135.2 137.1 474.0
05 09:00 17 69 9.98 11.3 9 1013.1 1 22.4 27.2 43.7 114.8 112.3 387.6
04 09:00 13.5 75 8.77 9.2 9 1013.1 10 20.0 26.3 40.6 106.7 101.0 347.7

Last Refresh: 13-Jul-2020 06:52:37

Most of the information presented on this site is sourced from the Bureau of Meteorology.  Copyright in all material sourced from the Bureau of Meteorology resides with the Commonwealth of Australia.